createdAt,value
2024-01-19T00:00:50.941Z,-2.57
2024-01-19T00:03:47.957Z,-2.92
2024-01-19T00:06:44.865Z,-2.96
2024-01-19T00:09:41.759Z,-3.10
2024-01-19T00:12:38.724Z,-3.19
2024-01-19T00:15:41.949Z,-3.51
2024-01-19T00:18:39.764Z,-3.12
2024-01-19T00:21:44.477Z,-2.91
2024-01-19T00:24:41.327Z,-2.93
2024-01-19T00:27:38.268Z,-3.20
2024-01-19T00:30:35.132Z,-3.06
2024-01-19T00:33:32.072Z,-3.07
2024-01-19T00:36:29.275Z,-4.06
2024-01-19T00:39:26.135Z,-4.12
2024-01-19T00:42:23.003Z,-3.61
2024-01-19T00:45:19.955Z,-3.50
2024-01-19T00:48:16.896Z,-3.50
2024-01-19T00:51:13.921Z,-2.81
2024-01-19T00:54:10.795Z,-3.52
2024-01-19T00:57:07.659Z,-3.56
2024-01-19T01:00:05.393Z,-3.75
2024-01-19T01:03:02.259Z,-3.71
2024-01-19T01:06:04.887Z,-3.77
2024-01-19T01:09:02.029Z,-4.06
2024-01-19T01:11:58.966Z,-3.54
2024-01-19T01:14:55.882Z,-3.91
2024-01-19T01:17:52.806Z,-3.97
2024-01-19T01:20:51.522Z,-3.70
2024-01-19T01:23:48.498Z,-3.91
2024-01-19T01:26:45.456Z,-4.47
2024-01-19T01:29:42.368Z,-3.73
2024-01-19T01:32:39.428Z,-3.77
2024-01-19T01:35:37.260Z,-3.70
2024-01-19T01:38:34.292Z,-3.80
2024-01-19T01:41:31.208Z,-3.89
2024-01-19T01:44:28.099Z,-3.40
2024-01-19T01:47:25.128Z,-3.32
2024-01-19T01:50:22.623Z,-3.37
2024-01-19T01:53:22.075Z,-3.51
2024-01-19T01:56:19.640Z,-3.25
2024-01-19T01:59:16.914Z,-3.64
2024-01-19T02:02:13.905Z,-3.13
2024-01-19T02:05:13.424Z,-4.05
2024-01-19T02:08:10.517Z,-4.39
2024-01-19T02:11:07.677Z,-4.16
2024-01-19T02:14:06.906Z,-4.55
2024-01-19T02:17:04.238Z,-3.96
2024-01-19T02:20:01.065Z,-3.51
2024-01-19T02:22:58.780Z,-3.75
2024-01-19T02:25:55.732Z,-3.97
2024-01-19T02:28:52.751Z,-4.03
2024-01-19T02:31:49.598Z,-4.31
2024-01-19T02:34:47.514Z,-4.26
2024-01-19T02:37:44.549Z,-4.41
2024-01-19T02:40:42.368Z,-4.52
2024-01-19T02:43:39.227Z,-4.30
2024-01-19T02:46:39.607Z,-5.00
2024-01-19T02:49:36.656Z,-4.23
2024-01-19T02:52:35.048Z,-4.07
2024-01-19T02:55:32.021Z,-3.98
2024-01-19T02:58:30.041Z,-4.28
2024-01-19T03:01:26.944Z,-4.31
2024-01-19T03:04:23.838Z,-4.30
2024-01-19T03:07:20.809Z,-4.24
2024-01-19T03:10:17.683Z,-4.14
2024-01-19T03:13:14.525Z,-4.21
2024-01-19T03:16:11.493Z,-3.79
2024-01-19T03:19:08.437Z,-3.89
2024-01-19T03:22:05.546Z,-3.68
2024-01-19T03:25:03.505Z,-3.92
2024-01-19T03:28:00.368Z,-3.89
2024-01-19T03:30:57.256Z,-4.12
2024-01-19T03:33:56.437Z,-4.34
2024-01-19T03:36:54.179Z,-3.83
2024-01-19T03:39:51.035Z,-3.34
2024-01-19T03:42:48.457Z,-3.81
2024-01-19T03:45:45.348Z,-3.98
2024-01-19T03:48:42.350Z,-3.49
2024-01-19T03:51:39.215Z,-4.58
2024-01-19T03:54:37.619Z,-4.46
2024-01-19T03:57:34.472Z,-4.18
2024-01-19T04:00:31.329Z,-4.01
2024-01-19T04:03:28.368Z,-3.64
2024-01-19T04:06:25.429Z,-3.68
2024-01-19T04:09:22.958Z,-4.00
2024-01-19T04:12:20.020Z,-3.58
2024-01-19T04:15:16.876Z,-4.60
2024-01-19T04:18:13.888Z,-3.42
2024-01-19T04:21:10.798Z,-3.63
2024-01-19T04:24:10.159Z,-4.40
2024-01-19T04:27:08.101Z,-3.63
2024-01-19T04:30:05.513Z,-3.62
2024-01-19T04:33:02.478Z,-3.18
2024-01-19T04:35:59.487Z,-3.61
2024-01-19T04:38:56.589Z,-3.56
2024-01-19T04:41:53.580Z,-3.68
2024-01-19T04:44:51.975Z,-3.84
2024-01-19T04:47:49.148Z,-3.74
2024-01-19T04:50:46.100Z,-3.77
2024-01-19T04:53:43.065Z,-3.64
2024-01-19T04:56:40.035Z,-3.98
2024-01-19T04:59:36.920Z,-3.28
2024-01-19T05:02:34.482Z,-3.32
2024-01-19T05:05:31.565Z,-3.68
2024-01-19T05:08:28.541Z,-3.77
2024-01-19T05:11:25.457Z,-2.83
2024-01-19T05:14:22.370Z,-3.40
2024-01-19T05:17:19.806Z,-3.89
2024-01-19T05:20:16.800Z,-3.84
2024-01-19T05:23:13.717Z,-3.72
2024-01-19T05:26:10.551Z,-3.56
2024-01-19T05:29:07.462Z,-3.56
2024-01-19T05:32:04.827Z,-3.56
2024-01-19T05:35:01.686Z,-3.76
2024-01-19T05:37:58.706Z,-3.70
2024-01-19T05:40:57.209Z,-3.75
2024-01-19T05:43:54.053Z,-3.81
2024-01-19T05:46:50.959Z,-3.49
2024-01-19T05:49:47.816Z,-3.70
2024-01-19T05:52:46.203Z,-3.17
2024-01-19T05:55:44.002Z,-3.20
2024-01-19T05:58:41.003Z,-4.00
2024-01-19T06:01:37.904Z,-3.03
2024-01-19T06:04:35.229Z,-2.89
2024-01-19T06:07:33.513Z,-3.62
2024-01-19T06:10:30.491Z,-3.72
2024-01-19T06:13:27.417Z,-3.63
2024-01-19T06:16:24.340Z,-3.77
2024-01-19T06:19:21.553Z,-3.86
2024-01-19T06:22:18.451Z,-3.98
2024-01-19T06:25:15.632Z,-4.01
2024-01-19T06:28:12.495Z,-3.59
2024-01-19T06:31:11.389Z,-3.99
2024-01-19T06:34:08.349Z,-3.79
2024-01-19T06:37:05.447Z,-3.49
2024-01-19T06:40:02.370Z,-3.84
2024-01-19T06:43:01.125Z,-3.84
2024-01-19T06:45:58.386Z,-3.65
2024-01-19T06:48:55.527Z,-4.32
2024-01-19T06:51:52.555Z,-3.49
2024-01-19T06:54:49.579Z,-3.61
2024-01-19T06:57:46.418Z,-3.93
2024-01-19T07:00:44.353Z,-3.96
2024-01-19T07:03:41.484Z,-4.17
2024-01-19T07:06:38.479Z,-4.15
2024-01-19T07:09:35.445Z,-5.02
2024-01-19T07:12:32.419Z,-4.51
2024-01-19T07:15:29.371Z,-5.04
2024-01-19T07:18:26.387Z,-4.63
2024-01-19T07:21:24.479Z,-4.47
2024-01-19T07:24:23.097Z,-4.39
2024-01-19T07:27:20.057Z,-4.75
2024-01-19T07:30:17.221Z,-4.83
2024-01-19T07:33:19.638Z,-4.79
2024-01-19T07:36:22.397Z,-4.62
2024-01-19T07:39:25.043Z,-4.86
2024-01-19T07:42:22.190Z,-4.90
2024-01-19T07:45:19.112Z,-5.49
2024-01-19T07:48:17.172Z,-4.59
2024-01-19T07:51:14.202Z,-4.53
2024-01-19T07:54:11.032Z,-4.65
2024-01-19T07:57:07.962Z,-4.35
2024-01-19T08:00:05.653Z,-4.80
2024-01-19T08:03:02.722Z,-4.77
2024-01-19T08:05:59.804Z,-4.63
2024-01-19T08:08:57.485Z,-5.12
2024-01-19T08:11:54.431Z,-4.96
2024-01-19T08:14:53.305Z,-5.57
2024-01-19T08:17:50.303Z,-4.82
2024-01-19T08:20:47.286Z,-4.72
2024-01-19T08:23:44.361Z,-4.74
2024-01-19T08:26:41.367Z,-4.61
2024-01-19T08:29:38.332Z,-5.11
2024-01-19T08:32:36.584Z,-4.82
2024-01-19T08:35:33.645Z,-4.63
2024-01-19T08:38:30.634Z,-4.52
2024-01-19T08:41:27.717Z,-4.48
2024-01-19T08:44:24.673Z,-4.43
2024-01-19T08:47:21.643Z,-4.16
2024-01-19T08:50:18.600Z,-4.93
2024-01-19T08:53:15.460Z,-4.12
2024-01-19T08:56:12.317Z,-3.72
2024-01-19T08:59:09.790Z,-3.50
2024-01-19T09:02:07.540Z,-4.00
2024-01-19T09:05:04.801Z,-3.54
2024-01-19T09:08:02.237Z,-3.18
2024-01-19T09:10:59.085Z,-3.30
2024-01-19T09:13:56.005Z,-2.96
2024-01-19T09:16:53.101Z,-1.76
2024-01-19T09:19:49.984Z,-2.27
2024-01-19T09:22:46.827Z,-2.36
2024-01-19T09:25:43.845Z,-3.32
2024-01-19T09:28:40.699Z,-3.58
2024-01-19T09:31:48.473Z,-3.07
2024-01-19T09:34:46.459Z,-2.84
2024-01-19T09:37:43.374Z,-2.42
2024-01-19T09:40:44.717Z,-2.68
2024-01-19T09:43:45.847Z,-2.03
2024-01-19T09:46:55.590Z,-2.50
2024-01-19T09:50:06.128Z,-2.65
2024-01-19T09:53:08.352Z,-1.45
2024-01-19T09:56:05.639Z,-1.86
2024-01-19T09:59:06.016Z,-1.88
2024-01-19T10:02:03.249Z,-1.83
2024-01-19T10:05:00.490Z,-1.88
2024-01-19T10:07:58.512Z,-1.97
2024-01-19T10:10:56.343Z,-2.06
2024-01-19T10:13:53.224Z,-2.07
2024-01-19T10:16:51.950Z,-2.20
2024-01-19T10:19:52.036Z,-2.33
2024-01-19T10:22:48.980Z,-1.84
2024-01-19T10:25:45.854Z,-1.84
2024-01-19T10:28:42.805Z,-1.69
2024-01-19T10:31:45.723Z,-1.91
2024-01-19T10:34:42.672Z,-1.68
2024-01-19T10:37:40.026Z,-1.81
2024-01-19T10:40:37.368Z,-1.81
2024-01-19T10:43:35.006Z,-2.30
2024-01-19T10:46:31.896Z,-2.06
2024-01-19T10:49:28.847Z,-1.94
2024-01-19T10:52:25.744Z,-2.10
2024-01-19T10:55:28.816Z,-1.64
2024-01-19T10:58:34.945Z,-1.73
2024-01-19T11:01:31.977Z,-1.93
2024-01-19T11:04:29.334Z,-1.94
2024-01-19T11:07:26.255Z,-1.88
2024-01-19T11:10:26.396Z,-1.67
2024-01-19T11:13:25.487Z,-2.06
2024-01-19T11:16:26.812Z,-1.38
2024-01-19T11:19:25.436Z,-2.19
2024-01-19T11:22:22.525Z,-1.21
2024-01-19T11:25:41.406Z,-1.59
2024-01-19T11:29:02.195Z,-1.63
2024-01-19T11:32:00.372Z,-1.80
2024-01-19T11:34:57.324Z,-2.32
2024-01-19T11:37:54.356Z,-1.93
2024-01-19T11:40:51.199Z,-1.88
2024-01-19T11:43:48.144Z,-1.65
2024-01-19T11:46:47.578Z,-1.84
2024-01-19T11:49:47.990Z,-1.61
2024-01-19T11:52:45.549Z,-1.63
2024-01-19T11:55:47.460Z,-1.81
2024-01-19T11:58:44.432Z,-1.35
2024-01-19T12:01:41.558Z,-1.21
2024-01-19T12:04:39.244Z,-1.11
2024-01-19T12:07:36.106Z,-1.43
2024-01-19T12:10:33.035Z,-1.90
2024-01-19T12:13:33.163Z,-1.41
2024-01-19T12:16:32.031Z,-1.69
2024-01-19T12:19:28.925Z,-1.03
2024-01-19T12:22:25.897Z,-0.76
2024-01-19T12:25:25.728Z,-0.67
2024-01-19T12:28:22.726Z,-1.56
2024-01-19T12:31:28.250Z,-1.87
2024-01-19T12:34:25.223Z,-1.83
2024-01-19T12:37:22.202Z,-1.92
2024-01-19T12:40:21.271Z,-2.00
2024-01-19T12:43:19.980Z,-1.84
2024-01-19T12:46:16.880Z,-1.71
2024-01-19T12:49:15.193Z,-1.61
2024-01-19T12:52:12.116Z,-1.88
2024-01-19T12:55:09.489Z,-1.31
2024-01-19T12:58:06.407Z,-1.22
2024-01-19T13:01:07.184Z,-1.36
2024-01-19T13:04:04.233Z,-1.37
2024-01-19T13:07:01.176Z,-1.85
2024-01-19T13:10:06.299Z,-1.50
2024-01-19T13:13:21.710Z,-1.60
2024-01-19T13:16:18.610Z,-1.56
2024-01-19T13:19:16.191Z,-1.66
2024-01-19T13:22:13.067Z,-1.91
2024-01-19T13:25:10.114Z,-1.78
2024-01-19T13:28:07.920Z,-1.48
2024-01-19T13:31:04.921Z,-1.98
2024-01-19T13:34:01.890Z,-1.46
2024-01-19T13:37:00.043Z,-1.52
2024-01-19T13:39:58.233Z,-1.37
2024-01-19T13:42:55.397Z,-1.79
2024-01-19T13:45:52.276Z,-1.54
2024-01-19T13:48:49.214Z,-1.37
2024-01-19T13:51:46.186Z,-1.41
2024-01-19T13:54:43.115Z,-1.11
2024-01-19T13:57:39.985Z,-1.44
2024-01-19T14:00:37.308Z,-1.35
2024-01-19T14:03:34.545Z,-1.37
2024-01-19T14:06:31.629Z,-1.53
2024-01-19T14:09:28.550Z,-1.26
2024-01-19T14:12:25.486Z,-0.79
2024-01-19T14:15:22.659Z,-0.98
2024-01-19T14:18:19.697Z,-1.15
2024-01-19T14:21:17.523Z,-1.45
2024-01-19T14:24:15.200Z,-1.04
2024-01-19T14:27:12.107Z,-1.13
2024-01-19T14:30:09.598Z,-0.99
2024-01-19T14:33:08.115Z,-1.39
2024-01-19T14:36:06.407Z,-1.14
2024-01-19T14:39:03.880Z,-0.96
2024-01-19T14:42:00.781Z,-0.84
2024-01-19T14:44:57.664Z,-0.79
2024-01-19T14:47:55.028Z,-1.17
2024-01-19T14:50:52.084Z,-1.20
2024-01-19T14:53:49.704Z,-0.91
2024-01-19T14:56:48.923Z,-0.67
2024-01-19T14:59:45.788Z,-1.06
2024-01-19T15:02:42.705Z,-0.89
2024-01-19T15:05:39.835Z,-1.12
2024-01-19T15:08:36.734Z,-0.56
2024-01-19T15:11:33.746Z,-0.62
2024-01-19T15:14:31.325Z,-1.00
2024-01-19T15:17:28.854Z,-0.73
2024-01-19T15:20:25.865Z,-0.69
2024-01-19T15:23:22.769Z,-0.55
2024-01-19T15:26:19.890Z,-0.65
2024-01-19T15:29:16.875Z,-1.13
2024-01-19T15:32:13.797Z,-1.42
2024-01-19T15:35:12.145Z,-0.47
2024-01-19T15:38:09.264Z,-1.02
2024-01-19T15:41:06.289Z,-0.70
2024-01-19T15:44:03.264Z,-0.88
2024-01-19T15:47:00.350Z,-1.22
2024-01-19T15:49:57.353Z,-1.25
2024-01-19T15:52:56.385Z,-1.19
2024-01-19T15:55:53.485Z,-1.09
2024-01-19T15:58:50.978Z,-1.19
2024-01-19T16:01:47.949Z,-1.25
2024-01-19T16:04:44.896Z,-0.82
2024-01-19T16:07:42.049Z,-1.20
2024-01-19T16:10:39.005Z,-1.07
2024-01-19T16:13:36.590Z,-1.01
2024-01-19T16:16:33.764Z,-1.14
2024-01-19T16:19:34.112Z,-1.56
2024-01-19T16:22:31.794Z,-0.91
2024-01-19T16:25:28.758Z,-0.89
2024-01-19T16:28:25.746Z,-1.06
2024-01-19T16:31:23.272Z,-1.05
2024-01-19T16:34:20.321Z,-0.65
2024-01-19T16:37:17.249Z,-0.50
2024-01-19T16:40:14.630Z,-0.98
2024-01-19T16:43:11.561Z,-1.22
2024-01-19T16:46:08.538Z,-0.88
2024-01-19T16:49:06.581Z,-1.32
2024-01-19T16:52:03.624Z,-1.03
2024-01-19T16:55:00.539Z,-1.44
2024-01-19T16:57:57.398Z,-1.48
2024-01-19T17:00:54.260Z,-1.61
2024-01-19T17:03:51.356Z,-1.25
2024-01-19T17:06:48.250Z,-1.52
2024-01-19T17:09:45.480Z,-1.52
2024-01-19T17:12:44.906Z,-1.21
2024-01-19T17:15:41.802Z,-0.99
2024-01-19T17:18:38.858Z,-0.26
2024-01-19T17:21:41.340Z,-0.73
2024-01-19T17:24:38.621Z,-1.05
2024-01-19T17:27:35.561Z,-1.03
2024-01-19T17:30:33.627Z,-1.44
2024-01-19T17:33:30.662Z,-0.57
2024-01-19T17:36:27.626Z,-0.63
2024-01-19T17:39:27.432Z,-0.90
2024-01-19T17:42:26.803Z,-1.26
2024-01-19T17:45:23.884Z,-1.58
2024-01-19T17:48:23.124Z,-1.49
2024-01-19T17:51:22.300Z,-1.44
2024-01-19T17:54:22.706Z,-1.69
2024-01-19T17:57:19.554Z,-1.48
2024-01-19T18:00:17.676Z,-1.68
2024-01-19T18:03:14.858Z,-1.31
2024-01-19T18:06:12.018Z,-1.72
2024-01-19T18:09:09.064Z,-1.70
2024-01-19T18:12:06.529Z,-1.67
2024-01-19T18:15:03.973Z,-1.70
2024-01-19T18:18:01.296Z,-1.49
2024-01-19T18:20:58.373Z,-1.64
2024-01-19T18:23:55.228Z,-1.16
2024-01-19T18:26:53.797Z,-1.86
2024-01-19T18:29:52.705Z,-1.60
2024-01-19T18:32:50.409Z,-1.63
2024-01-19T18:35:47.426Z,-1.54
2024-01-19T18:38:44.440Z,-1.42
2024-01-19T18:41:41.395Z,-1.85
2024-01-19T18:44:38.286Z,-1.91
2024-01-19T18:47:36.689Z,-1.55
2024-01-19T18:50:33.803Z,-1.75
2024-01-19T18:53:30.836Z,-1.68
2024-01-19T18:56:28.003Z,-1.26
2024-01-19T18:59:26.873Z,-1.39
2024-01-19T19:02:24.198Z,-1.29
2024-01-19T19:05:21.523Z,-1.18
2024-01-19T19:08:19.883Z,-1.17
2024-01-19T19:11:20.494Z,-1.75
2024-01-19T19:14:21.225Z,-1.85
2024-01-19T19:17:18.913Z,-1.96
2024-01-19T19:20:15.989Z,-1.66
2024-01-19T19:23:13.221Z,-1.20
2024-01-19T19:26:14.964Z,-1.28
2024-01-19T19:29:12.202Z,-1.65
2024-01-19T19:32:09.188Z,-1.48
2024-01-19T19:35:06.257Z,-1.65
2024-01-19T19:38:03.158Z,-1.53
2024-01-19T19:41:04.450Z,-1.77
2024-01-19T19:44:01.992Z,-1.81
2024-01-19T19:46:58.958Z,-1.50
2024-01-19T19:49:56.267Z,-1.57
2024-01-19T19:52:53.199Z,-1.76
2024-01-19T19:55:51.569Z,-1.75
2024-01-19T19:58:49.406Z,-1.42
2024-01-19T20:01:49.533Z,-1.72
2024-01-19T20:04:46.905Z,-1.60
2024-01-19T20:07:44.828Z,-1.78
2024-01-19T20:10:43.751Z,-1.36
2024-01-19T20:13:40.788Z,-1.31
2024-01-19T20:16:40.006Z,-1.46
2024-01-19T20:19:37.055Z,-1.35
2024-01-19T20:22:34.272Z,-1.58
2024-01-19T20:25:31.323Z,-1.50
2024-01-19T20:28:28.398Z,-1.51
2024-01-19T20:31:25.733Z,-1.41
2024-01-19T20:34:23.037Z,-1.52
2024-01-19T20:37:19.993Z,-1.80
2024-01-19T20:40:17.092Z,-1.87
2024-01-19T20:43:14.107Z,-1.86
2024-01-19T20:46:12.689Z,-1.90
2024-01-19T20:49:10.878Z,-1.42
2024-01-19T20:52:07.777Z,-1.79
2024-01-19T20:55:06.100Z,-2.00
2024-01-19T20:58:03.151Z,-2.06
2024-01-19T21:01:01.205Z,-1.82
2024-01-19T21:03:58.730Z,-2.06
2024-01-19T21:06:56.162Z,-1.88
2024-01-19T21:09:53.326Z,-2.01
2024-01-19T21:12:50.422Z,-2.00
2024-01-19T21:15:48.118Z,-2.03
2024-01-19T21:18:46.031Z,-1.76
2024-01-19T21:21:45.282Z,-1.82
2024-01-19T21:24:42.260Z,-1.40
2024-01-19T21:27:40.867Z,-1.61
2024-01-19T21:30:37.891Z,-2.28
2024-01-19T21:33:37.179Z,-1.99
2024-01-19T21:36:36.019Z,-2.21
2024-01-19T21:39:33.540Z,-1.89
2024-01-19T21:42:30.403Z,-2.00
2024-01-19T21:45:27.309Z,-2.20
2024-01-19T21:48:24.526Z,-1.89
2024-01-19T21:51:21.487Z,-1.90
2024-01-19T21:54:18.494Z,-1.57
2024-01-19T21:57:17.256Z,-1.55
2024-01-19T22:00:14.571Z,-1.72
2024-01-19T22:03:11.651Z,-1.85
2024-01-19T22:06:08.820Z,-1.85
2024-01-19T22:09:05.985Z,-1.75
2024-01-19T22:12:02.870Z,-1.79
2024-01-19T22:14:59.871Z,-1.71
2024-01-19T22:17:56.767Z,-2.04
2024-01-19T22:20:53.614Z,-2.14
2024-01-19T22:23:50.498Z,-1.95
2024-01-19T22:26:47.419Z,-1.89
2024-01-19T22:29:44.303Z,-1.63
2024-01-19T22:32:42.037Z,-1.80
2024-01-19T22:35:40.240Z,-1.83
2024-01-19T22:38:37.414Z,-2.01
2024-01-19T22:41:34.946Z,-1.89
2024-01-19T22:44:33.358Z,-1.67
2024-01-19T22:47:30.468Z,-1.97
2024-01-19T22:50:27.972Z,-1.55
2024-01-19T22:53:25.076Z,-1.76
2024-01-19T22:56:22.241Z,-2.01
2024-01-19T22:59:19.600Z,-1.37
2024-01-19T23:02:16.760Z,-1.72
2024-01-19T23:05:13.966Z,-1.28
2024-01-19T23:08:11.044Z,-2.26
2024-01-19T23:11:10.285Z,-1.88
2024-01-19T23:14:07.604Z,-1.66
2024-01-19T23:17:04.698Z,-1.72
2024-01-19T23:20:02.060Z,-1.44
2024-01-19T23:22:59.269Z,-1.68
2024-01-19T23:25:56.790Z,-2.18
2024-01-19T23:28:53.761Z,-2.30
2024-01-19T23:31:51.486Z,-2.04
2024-01-19T23:34:48.531Z,-2.24
2024-01-19T23:37:46.101Z,-1.93
2024-01-19T23:40:43.319Z,-2.10
2024-01-19T23:43:40.453Z,-2.09
2024-01-19T23:46:37.484Z,-2.53
2024-01-19T23:49:34.435Z,-2.34
2024-01-19T23:52:31.329Z,-2.36
2024-01-19T23:55:28.331Z,-2.46
2024-01-19T23:58:25.161Z,-2.65
